sensor_id;sensor_type;location;lat;lon;timestamp;temperature;humidity
52849;DHT22;38714;53.180;5.812;2023-10-13T00:01:33;13.80;99.90
52849;DHT22;38714;53.180;5.812;2023-10-13T00:03:59;13.80;99.90
52849;DHT22;38714;53.180;5.812;2023-10-13T00:06:27;13.80;99.90
52849;DHT22;38714;53.180;5.812;2023-10-13T00:08:53;13.90;99.90
52849;DHT22;38714;53.180;5.812;2023-10-13T00:11:18;13.90;99.90
52849;DHT22;38714;53.180;5.812;2023-10-13T00:13:46;13.90;99.90
52849;DHT22;38714;53.180;5.812;2023-10-13T00:16:20;13.90;99.90
52849;DHT22;38714;53.180;5.812;2023-10-13T00:18:53;13.90;99.90
52849;DHT22;38714;53.180;5.812;2023-10-13T00:21:24;13.90;99.90
52849;DHT22;38714;53.180;5.812;2023-10-13T00:24:02;13.90;99.90
52849;DHT22;38714;53.180;5.812;2023-10-13T00:26:31;14.00;99.90
52849;DHT22;38714;53.180;5.812;2023-10-13T00:29:02;14.00;99.90
52849;DHT22;38714;53.180;5.812;2023-10-13T00:31:40;14.10;99.90
52849;DHT22;38714;53.180;5.812;2023-10-13T00:34:09;14.10;99.90
52849;DHT22;38714;53.180;5.812;2023-10-13T00:36:37;14.20;99.90
52849;DHT22;38714;53.180;5.812;2023-10-13T00:39:12;14.20;99.90
52849;DHT22;38714;53.180;5.812;2023-10-13T00:41:44;14.30;99.90
52849;DHT22;38714;53.180;5.812;2023-10-13T00:44:18;14.30;99.90
52849;DHT22;38714;53.180;5.812;2023-10-13T00:46:54;14.30;99.90
52849;DHT22;38714;53.180;5.812;2023-10-13T00:49:22;14.40;99.90
52849;DHT22;38714;53.180;5.812;2023-10-13T00:51:49;14.40;99.90
52849;DHT22;38714;53.180;5.812;2023-10-13T00:54:15;14.50;99.90
52849;DHT22;38714;53.180;5.812;2023-10-13T00:56:46;14.50;99.90
52849;DHT22;38714;53.180;5.812;2023-10-13T00:59:23;14.50;99.90
52849;DHT22;38714;53.180;5.812;2023-10-13T01:01:51;14.60;99.90
52849;DHT22;38714;53.180;5.812;2023-10-13T01:04:21;14.60;99.90
52849;DHT22;38714;53.180;5.812;2023-10-13T01:06:50;14.60;99.90
52849;DHT22;38714;53.180;5.812;2023-10-13T01:09:16;14.60;99.90
52849;DHT22;38714;53.180;5.812;2023-10-13T01:11:47;14.70;99.90
52849;DHT22;38714;53.180;5.812;2023-10-13T01:14:14;14.70;99.90
52849;DHT22;38714;53.180;5.812;2023-10-13T01:16:48;14.70;99.90
52849;DHT22;38714;53.180;5.812;2023-10-13T01:19:18;14.80;99.90
52849;DHT22;38714;53.180;5.812;2023-10-13T01:21:51;14.80;99.90
52849;DHT22;38714;53.180;5.812;2023-10-13T01:24:22;14.80;99.90
52849;DHT22;38714;53.180;5.812;2023-10-13T01:26:50;14.90;99.90
52849;DHT22;38714;53.180;5.812;2023-10-13T01:29:18;14.90;99.90
52849;DHT22;38714;53.180;5.812;2023-10-13T01:31:45;14.90;99.90
52849;DHT22;38714;53.180;5.812;2023-10-13T01:34:16;15.00;99.90
52849;DHT22;38714;53.180;5.812;2023-10-13T01:36:52;15.00;99.90
52849;DHT22;38714;53.180;5.812;2023-10-13T01:39:25;15.10;99.90
52849;DHT22;38714;53.180;5.812;2023-10-13T01:41:57;15.10;99.90
52849;DHT22;38714;53.180;5.812;2023-10-13T01:44:24;15.10;99.90
52849;DHT22;38714;53.180;5.812;2023-10-13T01:46:51;15.10;99.90
52849;DHT22;38714;53.180;5.812;2023-10-13T01:49:17;15.10;99.90
52849;DHT22;38714;53.180;5.812;2023-10-13T01:51:43;15.10;99.90
52849;DHT22;38714;53.180;5.812;2023-10-13T01:54:09;15.10;99.90
52849;DHT22;38714;53.180;5.812;2023-10-13T01:56:38;15.20;99.90
52849;DHT22;38714;53.180;5.812;2023-10-13T01:59:10;15.20;99.90
52849;DHT22;38714;53.180;5.812;2023-10-13T02:01:36;15.10;99.90
52849;DHT22;38714;53.180;5.812;2023-10-13T02:04:02;15.20;99.90
52849;DHT22;38714;53.180;5.812;2023-10-13T02:06:34;15.20;99.90
52849;DHT22;38714;53.180;5.812;2023-10-13T02:09:06;15.20;99.90
52849;DHT22;38714;53.180;5.812;2023-10-13T02:11:45;15.20;99.90
52849;DHT22;38714;53.180;5.812;2023-10-13T02:14:12;15.20;99.90
52849;DHT22;38714;53.180;5.812;2023-10-13T02:16:38;15.20;99.90
52849;DHT22;38714;53.180;5.812;2023-10-13T02:19:04;15.20;99.90
52849;DHT22;38714;53.180;5.812;2023-10-13T02:21:31;15.20;99.90
52849;DHT22;38714;53.180;5.812;2023-10-13T02:23:58;15.30;99.90
52849;DHT22;38714;53.180;5.812;2023-10-13T02:26:32;15.20;99.90
52849;DHT22;38714;53.180;5.812;2023-10-13T02:29:02;15.30;99.90
52849;DHT22;38714;53.180;5.812;2023-10-13T02:31:34;15.30;99.90
52849;DHT22;38714;53.180;5.812;2023-10-13T02:33:59;15.40;99.90
52849;DHT22;38714;53.180;5.812;2023-10-13T02:36:26;15.30;99.90
52849;DHT22;38714;53.180;5.812;2023-10-13T02:39:10;15.30;99.90
52849;DHT22;38714;53.180;5.812;2023-10-13T02:41:39;15.40;99.90
52849;DHT22;38714;53.180;5.812;2023-10-13T02:44:07;15.40;99.90
52849;DHT22;38714;53.180;5.812;2023-10-13T02:46:34;15.40;99.90
52849;DHT22;38714;53.180;5.812;2023-10-13T02:49:06;15.40;99.90
52849;DHT22;38714;53.180;5.812;2023-10-13T02:51:38;15.40;99.90
52849;DHT22;38714;53.180;5.812;2023-10-13T02:54:07;15.40;99.90
52849;DHT22;38714;53.180;5.812;2023-10-13T02:56:40;15.40;99.90
52849;DHT22;38714;53.180;5.812;2023-10-13T02:59:23;15.40;99.90
52849;DHT22;38714;53.180;5.812;2023-10-13T03:02:00;15.40;99.90
52849;DHT22;38714;53.180;5.812;2023-10-13T03:04:32;15.40;99.90
52849;DHT22;38714;53.180;5.812;2023-10-13T03:06:58;15.50;99.90
52849;DHT22;38714;53.180;5.812;2023-10-13T03:09:25;15.50;99.90
52849;DHT22;38714;53.180;5.812;2023-10-13T03:11:51;15.50;99.90
52849;DHT22;38714;53.180;5.812;2023-10-13T03:14:20;15.50;99.90
52849;DHT22;38714;53.180;5.812;2023-10-13T03:17:00;15.50;99.90
52849;DHT22;38714;53.180;5.812;2023-10-13T03:19:34;15.50;99.90
52849;DHT22;38714;53.180;5.812;2023-10-13T03:22:08;15.50;99.90
52849;DHT22;38714;53.180;5.812;2023-10-13T03:24:37;15.50;99.90
52849;DHT22;38714;53.180;5.812;2023-10-13T03:27:07;15.50;99.90
52849;DHT22;38714;53.180;5.812;2023-10-13T03:29:36;15.50;99.90
52849;DHT22;38714;53.180;5.812;2023-10-13T03:32:03;15.60;99.90
52849;DHT22;38714;53.180;5.812;2023-10-13T03:34:32;15.60;99.90
52849;DHT22;38714;53.180;5.812;2023-10-13T03:37:00;15.60;99.90
52849;DHT22;38714;53.180;5.812;2023-10-13T03:39:36;15.60;99.90
52849;DHT22;38714;53.180;5.812;2023-10-13T03:42:01;15.60;99.90
52849;DHT22;38714;53.180;5.812;2023-10-13T03:44:30;15.60;99.90
52849;DHT22;38714;53.180;5.812;2023-10-13T03:46:57;15.60;99.90
52849;DHT22;38714;53.180;5.812;2023-10-13T03:49:22;15.60;99.90
52849;DHT22;38714;53.180;5.812;2023-10-13T03:51:50;15.60;99.90
52849;DHT22;38714;53.180;5.812;2023-10-13T03:54:20;15.60;99.90
52849;DHT22;38714;53.180;5.812;2023-10-13T03:56:45;15.60;99.90
52849;DHT22;38714;53.180;5.812;2023-10-13T03:59:12;15.60;99.90
52849;DHT22;38714;53.180;5.812;2023-10-13T04:01:40;15.60;99.90
52849;DHT22;38714;53.180;5.812;2023-10-13T04:04:09;15.60;99.90
52849;DHT22;38714;53.180;5.812;2023-10-13T04:06:37;15.60;99.90
52849;DHT22;38714;53.180;5.812;2023-10-13T04:09:16;15.60;99.90
52849;DHT22;38714;53.180;5.812;2023-10-13T04:12:01;15.60;99.90
52849;DHT22;38714;53.180;5.812;2023-10-13T04:14:31;15.60;99.90
52849;DHT22;38714;53.180;5.812;2023-10-13T04:17:15;15.60;99.90
52849;DHT22;38714;53.180;5.812;2023-10-13T04:19:41;15.60;99.90
52849;DHT22;38714;53.180;5.812;2023-10-13T04:22:26;15.60;99.90
52849;DHT22;38714;53.180;5.812;2023-10-13T04:27:58;15.70;99.90
52849;DHT22;38714;53.180;5.812;2023-10-13T04:30:53;15.70;99.90
52849;DHT22;38714;53.180;5.812;2023-10-13T04:33:31;15.70;99.90
52849;DHT22;38714;53.180;5.812;2023-10-13T04:36:10;15.70;99.90
52849;DHT22;38714;53.180;5.812;2023-10-13T04:38:50;15.70;99.90
52849;DHT22;38714;53.180;5.812;2023-10-13T04:41:38;15.80;99.90
52849;DHT22;38714;53.180;5.812;2023-10-13T04:44:15;15.80;99.90
52849;DHT22;38714;53.180;5.812;2023-10-13T04:47:00;15.80;99.90
52849;DHT22;38714;53.180;5.812;2023-10-13T04:49:27;15.80;99.90
52849;DHT22;38714;53.180;5.812;2023-10-13T04:52:16;15.80;99.90
52849;DHT22;38714;53.180;5.812;2023-10-13T04:55:00;15.80;99.90
52849;DHT22;38714;53.180;5.812;2023-10-13T04:57:46;15.80;99.90
52849;DHT22;38714;53.180;5.812;2023-10-13T05:00:13;15.80;99.90
52849;DHT22;38714;53.180;5.812;2023-10-13T05:02:46;15.80;99.90
52849;DHT22;38714;53.180;5.812;2023-10-13T05:05:21;15.80;99.90
52849;DHT22;38714;53.180;5.812;2023-10-13T05:08:07;15.80;99.90
52849;DHT22;38714;53.180;5.812;2023-10-13T05:10:51;15.80;99.90
52849;DHT22;38714;53.180;5.812;2023-10-13T05:13:35;15.80;99.90
52849;DHT22;38714;53.180;5.812;2023-10-13T05:16:19;15.80;99.90
52849;DHT22;38714;53.180;5.812;2023-10-13T05:19:03;15.70;99.90
52849;DHT22;38714;53.180;5.812;2023-10-13T05:21:48;15.80;99.90
52849;DHT22;38714;53.180;5.812;2023-10-13T05:24:32;15.80;99.90
52849;DHT22;38714;53.180;5.812;2023-10-13T05:27:16;15.80;99.90
52849;DHT22;38714;53.180;5.812;2023-10-13T05:30:00;15.80;99.90
52849;DHT22;38714;53.180;5.812;2023-10-13T05:32:44;15.80;99.90
52849;DHT22;38714;53.180;5.812;2023-10-13T05:35:31;15.80;99.90
52849;DHT22;38714;53.180;5.812;2023-10-13T05:38:15;15.80;99.90
52849;DHT22;38714;53.180;5.812;2023-10-13T05:41:01;15.70;99.90
52849;DHT22;38714;53.180;5.812;2023-10-13T05:43:45;15.80;99.90
52849;DHT22;38714;53.180;5.812;2023-10-13T05:46:29;15.70;99.90
52849;DHT22;38714;53.180;5.812;2023-10-13T05:49:06;15.70;99.90
52849;DHT22;38714;53.180;5.812;2023-10-13T05:51:51;15.70;99.90
52849;DHT22;38714;53.180;5.812;2023-10-13T05:54:23;15.60;99.90
52849;DHT22;38714;53.180;5.812;2023-10-13T05:57:08;15.60;99.90
52849;DHT22;38714;53.180;5.812;2023-10-13T05:59:52;15.50;99.90
52849;DHT22;38714;53.180;5.812;2023-10-13T06:02:36;15.50;99.90
52849;DHT22;38714;53.180;5.812;2023-10-13T06:05:20;15.50;99.90
52849;DHT22;38714;53.180;5.812;2023-10-13T06:08:04;15.50;99.90
52849;DHT22;38714;53.180;5.812;2023-10-13T06:10:49;15.50;99.90
52849;DHT22;38714;53.180;5.812;2023-10-13T06:13:33;15.50;99.90
52849;DHT22;38714;53.180;5.812;2023-10-13T06:16:17;15.50;99.90
52849;DHT22;38714;53.180;5.812;2023-10-13T06:19:02;15.50;99.90
52849;DHT22;38714;53.180;5.812;2023-10-13T06:21:46;15.60;99.90
52849;DHT22;38714;53.180;5.812;2023-10-13T06:24:31;15.50;99.90
52849;DHT22;38714;53.180;5.812;2023-10-13T06:27:16;15.60;99.90
52849;DHT22;38714;53.180;5.812;2023-10-13T06:30:01;15.60;99.90
52849;DHT22;38714;53.180;5.812;2023-10-13T06:32:27;15.60;99.90
52849;DHT22;38714;53.180;5.812;2023-10-13T06:34:53;15.70;99.90
52849;DHT22;38714;53.180;5.812;2023-10-13T06:37:32;15.70;99.90
52849;DHT22;38714;53.180;5.812;2023-10-13T06:40:09;15.70;99.90
52849;DHT22;38714;53.180;5.812;2023-10-13T06:42:48;15.70;99.90
52849;DHT22;38714;53.180;5.812;2023-10-13T06:45:14;15.80;99.90
52849;DHT22;38714;53.180;5.812;2023-10-13T06:47:42;15.80;99.90
52849;DHT22;38714;53.180;5.812;2023-10-13T06:50:12;15.80;99.90
52849;DHT22;38714;53.180;5.812;2023-10-13T06:52:47;15.80;99.90
52849;DHT22;38714;53.180;5.812;2023-10-13T06:55:13;15.80;99.90
52849;DHT22;38714;53.180;5.812;2023-10-13T06:58:00;15.90;99.90
52849;DHT22;38714;53.180;5.812;2023-10-13T07:00:27;15.90;99.90
52849;DHT22;38714;53.180;5.812;2023-10-13T07:03:02;15.80;99.90
52849;DHT22;38714;53.180;5.812;2023-10-13T07:05:50;15.80;99.90
52849;DHT22;38714;53.180;5.812;2023-10-13T07:08:16;15.80;99.90
52849;DHT22;38714;53.180;5.812;2023-10-13T07:10:52;15.80;99.90
52849;DHT22;38714;53.180;5.812;2023-10-13T07:13:34;15.80;99.90
52849;DHT22;38714;53.180;5.812;2023-10-13T07:16:12;15.80;99.90
52849;DHT22;38714;53.180;5.812;2023-10-13T07:18:38;15.80;99.90
52849;DHT22;38714;53.180;5.812;2023-10-13T07:21:15;15.80;99.90
52849;DHT22;38714;53.180;5.812;2023-10-13T07:23:40;15.80;99.90
52849;DHT22;38714;53.180;5.812;2023-10-13T07:26:12;15.80;99.90
52849;DHT22;38714;53.180;5.812;2023-10-13T07:28:39;15.80;99.90
52849;DHT22;38714;53.180;5.812;2023-10-13T07:31:13;15.80;99.90
52849;DHT22;38714;53.180;5.812;2023-10-13T07:33:40;15.70;99.90
52849;DHT22;38714;53.180;5.812;2023-10-13T07:36:08;15.80;99.90
52849;DHT22;38714;53.180;5.812;2023-10-13T07:38:50;15.70;99.90
52849;DHT22;38714;53.180;5.812;2023-10-13T07:41:25;15.70;99.90
52849;DHT22;38714;53.180;5.812;2023-10-13T07:43:56;15.70;99.90
52849;DHT22;38714;53.180;5.812;2023-10-13T07:46:23;15.70;99.90
52849;DHT22;38714;53.180;5.812;2023-10-13T07:48:55;15.70;99.90
52849;DHT22;38714;53.180;5.812;2023-10-13T07:51:34;15.70;99.90
52849;DHT22;38714;53.180;5.812;2023-10-13T07:54:06;15.70;99.90
52849;DHT22;38714;53.180;5.812;2023-10-13T07:56:36;15.70;99.90
52849;DHT22;38714;53.180;5.812;2023-10-13T07:59:05;15.70;99.90
52849;DHT22;38714;53.180;5.812;2023-10-13T08:01:31;15.70;99.90
52849;DHT22;38714;53.180;5.812;2023-10-13T08:03:58;15.60;99.90
52849;DHT22;38714;53.180;5.812;2023-10-13T08:06:40;15.70;99.90
52849;DHT22;38714;53.180;5.812;2023-10-13T08:09:07;15.70;99.90
52849;DHT22;38714;53.180;5.812;2023-10-13T08:11:56;15.70;99.90
52849;DHT22;38714;53.180;5.812;2023-10-13T08:14:22;15.80;99.90
52849;DHT22;38714;53.180;5.812;2023-10-13T08:16:48;15.80;99.90
52849;DHT22;38714;53.180;5.812;2023-10-13T08:19:26;15.80;99.90
52849;DHT22;38714;53.180;5.812;2023-10-13T08:22:14;15.80;99.90
52849;DHT22;38714;53.180;5.812;2023-10-13T08:24:50;15.80;99.90
52849;DHT22;38714;53.180;5.812;2023-10-13T08:27:20;15.90;99.90
52849;DHT22;38714;53.180;5.812;2023-10-13T08:30:11;15.90;99.90
52849;DHT22;38714;53.180;5.812;2023-10-13T08:32:54;15.90;99.90
52849;DHT22;38714;53.180;5.812;2023-10-13T08:35:20;16.00;99.90
52849;DHT22;38714;53.180;5.812;2023-10-13T08:37:55;16.00;99.90
52849;DHT22;38714;53.180;5.812;2023-10-13T08:40:23;16.00;99.90
52849;DHT22;38714;53.180;5.812;2023-10-13T08:43:12;16.00;99.90
52849;DHT22;38714;53.180;5.812;2023-10-13T08:45:39;16.00;99.90
52849;DHT22;38714;53.180;5.812;2023-10-13T08:48:06;16.10;99.90
52849;DHT22;38714;53.180;5.812;2023-10-13T08:50:51;16.10;99.90
52849;DHT22;38714;53.180;5.812;2023-10-13T08:53:22;16.10;99.90
52849;DHT22;38714;53.180;5.812;2023-10-13T08:55:59;16.10;99.90
52849;DHT22;38714;53.180;5.812;2023-10-13T08:58:32;16.20;99.90
52849;DHT22;38714;53.180;5.812;2023-10-13T09:01:17;16.20;99.90
52849;DHT22;38714;53.180;5.812;2023-10-13T09:04:10;16.30;99.90
52849;DHT22;38714;53.180;5.812;2023-10-13T09:07:05;16.30;99.90
52849;DHT22;38714;53.180;5.812;2023-10-13T09:17:52;16.50;99.90
52849;DHT22;38714;53.180;5.812;2023-10-13T09:20:30;16.60;99.90
52849;DHT22;38714;53.180;5.812;2023-10-13T09:23:14;16.70;99.90
52849;DHT22;38714;53.180;5.812;2023-10-13T09:25:53;16.80;99.90
52849;DHT22;38714;53.180;5.812;2023-10-13T09:28:34;16.80;99.90
52849;DHT22;38714;53.180;5.812;2023-10-13T09:31:03;16.90;99.90
52849;DHT22;38714;53.180;5.812;2023-10-13T09:33:33;17.00;99.90
52849;DHT22;38714;53.180;5.812;2023-10-13T09:36:05;17.00;99.90
52849;DHT22;38714;53.180;5.812;2023-10-13T09:38:36;17.10;99.90
52849;DHT22;38714;53.180;5.812;2023-10-13T09:41:07;17.10;99.90
52849;DHT22;38714;53.180;5.812;2023-10-13T09:43:52;17.10;99.90
52849;DHT22;38714;53.180;5.812;2023-10-13T09:46:21;17.20;99.90
52849;DHT22;38714;53.180;5.812;2023-10-13T09:48:57;17.20;99.90
52849;DHT22;38714;53.180;5.812;2023-10-13T09:51:40;17.20;99.90
52849;DHT22;38714;53.180;5.812;2023-10-13T09:54:24;17.20;99.90
52849;DHT22;38714;53.180;5.812;2023-10-13T09:56:58;17.30;99.90
52849;DHT22;38714;53.180;5.812;2023-10-13T10:00:00;17.30;99.90
52849;DHT22;38714;53.180;5.812;2023-10-13T10:02:31;17.30;99.90
52849;DHT22;38714;53.180;5.812;2023-10-13T10:04:57;17.40;99.90
52849;DHT22;38714;53.180;5.812;2023-10-13T10:07:38;17.40;99.90
52849;DHT22;38714;53.180;5.812;2023-10-13T10:10:05;17.40;99.90
52849;DHT22;38714;53.180;5.812;2023-10-13T10:12:52;17.50;99.90
52849;DHT22;38714;53.180;5.812;2023-10-13T10:15:30;17.50;99.90
52849;DHT22;38714;53.180;5.812;2023-10-13T10:18:00;17.50;99.90
52849;DHT22;38714;53.180;5.812;2023-10-13T10:20:29;17.50;99.90
52849;DHT22;38714;53.180;5.812;2023-10-13T10:22:59;17.60;99.90
52849;DHT22;38714;53.180;5.812;2023-10-13T10:25:30;17.60;99.90
52849;DHT22;38714;53.180;5.812;2023-10-13T10:28:04;17.70;99.90
52849;DHT22;38714;53.180;5.812;2023-10-13T10:30:35;17.70;99.90
52849;DHT22;38714;53.180;5.812;2023-10-13T10:33:04;17.80;99.90
52849;DHT22;38714;53.180;5.812;2023-10-13T10:35:58;17.80;99.90
52849;DHT22;38714;53.180;5.812;2023-10-13T10:38:24;17.90;99.90
52849;DHT22;38714;53.180;5.812;2023-10-13T10:40:59;17.90;99.90
52849;DHT22;38714;53.180;5.812;2023-10-13T10:46:27;17.90;99.90
52849;DHT22;38714;53.180;5.812;2023-10-13T10:48:56;18.00;99.90
52849;DHT22;38714;53.180;5.812;2023-10-13T10:51:26;18.00;99.90
52849;DHT22;38714;53.180;5.812;2023-10-13T10:53:57;18.00;99.90
52849;DHT22;38714;53.180;5.812;2023-10-13T10:56:25;18.10;99.90
52849;DHT22;38714;53.180;5.812;2023-10-13T10:59:17;18.10;99.90
52849;DHT22;38714;53.180;5.812;2023-10-13T11:01:47;18.20;99.90
52849;DHT22;38714;53.180;5.812;2023-10-13T11:04:16;18.20;99.90
52849;DHT22;38714;53.180;5.812;2023-10-13T11:06:52;18.20;99.90
52849;DHT22;38714;53.180;5.812;2023-10-13T11:11:57;18.20;99.90
52849;DHT22;38714;53.180;5.812;2023-10-13T11:14:43;18.20;99.90
52849;DHT22;38714;53.180;5.812;2023-10-13T11:17:22;18.20;99.90
52849;DHT22;38714;53.180;5.812;2023-10-13T11:20:13;18.20;99.90
52849;DHT22;38714;53.180;5.812;2023-10-13T11:22:57;18.20;99.90
52849;DHT22;38714;53.180;5.812;2023-10-13T11:25:24;18.20;99.90
52849;DHT22;38714;53.180;5.812;2023-10-13T11:28:13;18.20;99.90
52849;DHT22;38714;53.180;5.812;2023-10-13T11:30:46;18.10;99.90
52849;DHT22;38714;53.180;5.812;2023-10-13T11:33:17;18.20;99.90
52849;DHT22;38714;53.180;5.812;2023-10-13T11:36:01;18.20;99.90
52849;DHT22;38714;53.180;5.812;2023-10-13T11:38:29;18.20;99.90
52849;DHT22;38714;53.180;5.812;2023-10-13T11:41:15;18.20;99.90
52849;DHT22;38714;53.180;5.812;2023-10-13T11:43:49;18.20;99.90
52849;DHT22;38714;53.180;5.812;2023-10-13T11:46:15;18.10;99.90
52849;DHT22;38714;53.180;5.812;2023-10-13T11:48:43;18.00;99.90
52849;DHT22;38714;53.180;5.812;2023-10-13T11:51:11;17.80;99.90
52849;DHT22;38714;53.180;5.812;2023-10-13T11:53:43;17.70;99.90
52849;DHT22;38714;53.180;5.812;2023-10-13T11:56:10;17.60;99.90
52849;DHT22;38714;53.180;5.812;2023-10-13T11:58:39;17.50;99.90
52849;DHT22;38714;53.180;5.812;2023-10-13T12:01:06;17.50;99.90
52849;DHT22;38714;53.180;5.812;2023-10-13T12:03:41;17.50;99.90
52849;DHT22;38714;53.180;5.812;2023-10-13T12:06:26;17.40;99.90
52849;DHT22;38714;53.180;5.812;2023-10-13T12:09:08;17.40;99.90
52849;DHT22;38714;53.180;5.812;2023-10-13T12:11:43;17.50;99.90
52849;DHT22;38714;53.180;5.812;2023-10-13T12:14:13;17.50;99.90
52849;DHT22;38714;53.180;5.812;2023-10-13T12:16:47;17.50;99.90
52849;DHT22;38714;53.180;5.812;2023-10-13T12:19:20;17.50;99.90
52849;DHT22;38714;53.180;5.812;2023-10-13T12:21:50;17.50;99.90
52849;DHT22;38714;53.180;5.812;2023-10-13T12:24:20;17.50;99.90
52849;DHT22;38714;53.180;5.812;2023-10-13T12:27:06;17.50;99.90
52849;DHT22;38714;53.180;5.812;2023-10-13T12:29:53;17.50;99.90
52849;DHT22;38714;53.180;5.812;2023-10-13T12:32:22;17.40;99.90
52849;DHT22;38714;53.180;5.812;2023-10-13T12:34:51;17.40;99.90
52849;DHT22;38714;53.180;5.812;2023-10-13T12:37:42;17.40;99.90
52849;DHT22;38714;53.180;5.812;2023-10-13T12:43:00;17.40;99.90
52849;DHT22;38714;53.180;5.812;2023-10-13T12:45:45;17.40;99.90
52849;DHT22;38714;53.180;5.812;2023-10-13T12:48:31;17.30;99.90
52849;DHT22;38714;53.180;5.812;2023-10-13T12:51:16;17.30;99.90
52849;DHT22;38714;53.180;5.812;2023-10-13T12:53:57;17.30;99.90
52849;DHT22;38714;53.180;5.812;2023-10-13T12:56:30;17.30;99.90
52849;DHT22;38714;53.180;5.812;2023-10-13T12:58:56;17.30;99.90
52849;DHT22;38714;53.180;5.812;2023-10-13T13:01:26;17.20;99.90
52849;DHT22;38714;53.180;5.812;2023-10-13T13:03:58;17.20;99.90
52849;DHT22;38714;53.180;5.812;2023-10-13T13:06:27;17.20;99.90
52849;DHT22;38714;53.180;5.812;2023-10-13T13:08:59;17.20;99.90
52849;DHT22;38714;53.180;5.812;2023-10-13T13:11:25;17.20;99.90
52849;DHT22;38714;53.180;5.812;2023-10-13T13:13:51;17.20;99.90
52849;DHT22;38714;53.180;5.812;2023-10-13T13:16:18;17.20;99.90
52849;DHT22;38714;53.180;5.812;2023-10-13T13:18:45;17.20;99.90
52849;DHT22;38714;53.180;5.812;2023-10-13T13:21:11;17.20;99.90
52849;DHT22;38714;53.180;5.812;2023-10-13T13:23:47;17.20;99.90
52849;DHT22;38714;53.180;5.812;2023-10-13T13:26:12;17.20;99.90
52849;DHT22;38714;53.180;5.812;2023-10-13T13:28:45;17.20;99.90
52849;DHT22;38714;53.180;5.812;2023-10-13T13:31:11;17.20;99.90
52849;DHT22;38714;53.180;5.812;2023-10-13T13:33:41;17.20;99.90
52849;DHT22;38714;53.180;5.812;2023-10-13T13:36:12;17.20;99.90
52849;DHT22;38714;53.180;5.812;2023-10-13T13:38:41;17.20;99.90
52849;DHT22;38714;53.180;5.812;2023-10-13T13:41:13;17.20;99.90
52849;DHT22;38714;53.180;5.812;2023-10-13T13:43:47;17.20;99.90
52849;DHT22;38714;53.180;5.812;2023-10-13T13:46:19;17.20;99.90
52849;DHT22;38714;53.180;5.812;2023-10-13T13:48:50;17.30;99.90
52849;DHT22;38714;53.180;5.812;2023-10-13T13:51:17;17.30;99.90
52849;DHT22;38714;53.180;5.812;2023-10-13T13:53:52;17.40;99.90
52849;DHT22;38714;53.180;5.812;2023-10-13T13:56:19;17.40;99.90
52849;DHT22;38714;53.180;5.812;2023-10-13T13:58:49;17.40;99.90
52849;DHT22;38714;53.180;5.812;2023-10-13T14:01:19;17.40;99.90
52849;DHT22;38714;53.180;5.812;2023-10-13T14:03:49;17.50;99.90
52849;DHT22;38714;53.180;5.812;2023-10-13T14:06:21;17.50;99.90
52849;DHT22;38714;53.180;5.812;2023-10-13T14:08:49;17.50;99.90
52849;DHT22;38714;53.180;5.812;2023-10-13T14:11:19;17.50;99.90
52849;DHT22;38714;53.180;5.812;2023-10-13T14:13:51;17.50;99.90
52849;DHT22;38714;53.180;5.812;2023-10-13T14:16:21;17.50;99.90
52849;DHT22;38714;53.180;5.812;2023-10-13T14:18:50;17.60;99.90
52849;DHT22;38714;53.180;5.812;2023-10-13T14:21:16;17.60;99.90
52849;DHT22;38714;53.180;5.812;2023-10-13T14:23:48;17.60;99.90
52849;DHT22;38714;53.180;5.812;2023-10-13T14:26:17;17.60;99.90
52849;DHT22;38714;53.180;5.812;2023-10-13T14:28:49;17.60;99.90
52849;DHT22;38714;53.180;5.812;2023-10-13T14:31:30;17.60;99.90
52849;DHT22;38714;53.180;5.812;2023-10-13T14:33:55;17.60;99.90
52849;DHT22;38714;53.180;5.812;2023-10-13T14:36:22;17.70;99.90
52849;DHT22;38714;53.180;5.812;2023-10-13T14:38:48;17.70;99.90
52849;DHT22;38714;53.180;5.812;2023-10-13T14:41:18;17.70;99.90
52849;DHT22;38714;53.180;5.812;2023-10-13T14:43:46;17.70;99.90
52849;DHT22;38714;53.180;5.812;2023-10-13T14:46:15;17.70;99.90
52849;DHT22;38714;53.180;5.812;2023-10-13T14:48:42;17.70;99.90
52849;DHT22;38714;53.180;5.812;2023-10-13T14:51:11;17.80;99.90
52849;DHT22;38714;53.180;5.812;2023-10-13T14:53:42;17.80;99.90
52849;DHT22;38714;53.180;5.812;2023-10-13T14:56:11;17.80;99.90
52849;DHT22;38714;53.180;5.812;2023-10-13T14:58:40;17.80;99.90
52849;DHT22;38714;53.180;5.812;2023-10-13T15:01:16;17.90;99.90
52849;DHT22;38714;53.180;5.812;2023-10-13T15:03:46;17.80;99.90
52849;DHT22;38714;53.180;5.812;2023-10-13T15:06:23;17.90;99.90
52849;DHT22;38714;53.180;5.812;2023-10-13T15:08:56;17.90;99.90
52849;DHT22;38714;53.180;5.812;2023-10-13T15:11:22;17.90;99.90
52849;DHT22;38714;53.180;5.812;2023-10-13T15:13:53;17.90;99.90
52849;DHT22;38714;53.180;5.812;2023-10-13T15:16:23;17.90;99.90
52849;DHT22;38714;53.180;5.812;2023-10-13T15:18:50;18.00;99.90
52849;DHT22;38714;53.180;5.812;2023-10-13T15:21:25;18.00;99.90
52849;DHT22;38714;53.180;5.812;2023-10-13T15:24:00;18.00;99.90
52849;DHT22;38714;53.180;5.812;2023-10-13T15:26:30;17.90;99.90
52849;DHT22;38714;53.180;5.812;2023-10-13T15:28:57;17.90;99.90
52849;DHT22;38714;53.180;5.812;2023-10-13T15:31:23;18.00;99.90
52849;DHT22;38714;53.180;5.812;2023-10-13T15:33:53;18.00;99.90
52849;DHT22;38714;53.180;5.812;2023-10-13T15:36:22;18.00;99.90
52849;DHT22;38714;53.180;5.812;2023-10-13T15:38:51;18.00;99.90
52849;DHT22;38714;53.180;5.812;2023-10-13T15:41:30;18.00;99.90
52849;DHT22;38714;53.180;5.812;2023-10-13T15:43:58;18.00;99.90
52849;DHT22;38714;53.180;5.812;2023-10-13T15:46:24;18.00;99.90
52849;DHT22;38714;53.180;5.812;2023-10-13T15:48:51;17.90;99.90
52849;DHT22;38714;53.180;5.812;2023-10-13T15:51:18;18.00;99.90
52849;DHT22;38714;53.180;5.812;2023-10-13T15:53:44;17.90;99.90
52849;DHT22;38714;53.180;5.812;2023-10-13T15:56:13;17.90;99.90
52849;DHT22;38714;53.180;5.812;2023-10-13T15:58:47;17.90;99.90
52849;DHT22;38714;53.180;5.812;2023-10-13T16:01:13;17.90;99.90
52849;DHT22;38714;53.180;5.812;2023-10-13T16:03:40;17.90;99.90
52849;DHT22;38714;53.180;5.812;2023-10-13T16:06:08;17.90;99.90
52849;DHT22;38714;53.180;5.812;2023-10-13T16:08:37;17.90;99.90
52849;DHT22;38714;53.180;5.812;2023-10-13T16:11:05;17.80;99.90
52849;DHT22;38714;53.180;5.812;2023-10-13T16:13:36;17.80;99.90
52849;DHT22;38714;53.180;5.812;2023-10-13T16:16:04;17.80;99.90
52849;DHT22;38714;53.180;5.812;2023-10-13T16:18:30;17.80;99.90
52849;DHT22;38714;53.180;5.812;2023-10-13T16:21:00;17.80;99.90
52849;DHT22;38714;53.180;5.812;2023-10-13T16:23:29;17.80;99.90
52849;DHT22;38714;53.180;5.812;2023-10-13T16:25:55;17.70;99.90
52849;DHT22;38714;53.180;5.812;2023-10-13T16:28:27;17.70;99.90